createdAt,value
2023-06-15T00:01:34.802Z,6.13
2023-06-15T00:04:04.149Z,7.13
2023-06-15T00:06:33.301Z,6.67
2023-06-15T00:09:05.732Z,4.07
2023-06-15T00:11:36.739Z,6.18
2023-06-15T00:14:13.051Z,7.28
2023-06-15T00:16:43.302Z,6.18
2023-06-15T00:19:10.579Z,5.53
2023-06-15T00:21:43.794Z,5.93
2023-06-15T00:24:12.215Z,6.10
2023-06-15T00:26:43.946Z,6.20
2023-06-15T00:29:12.060Z,6.07
2023-06-15T00:31:45.806Z,5.93
2023-06-15T00:34:15.984Z,4.68
2023-06-15T00:36:42.870Z,4.63
2023-06-15T00:39:10.535Z,7.05
2023-06-15T00:41:45.553Z,3.92
2023-06-15T00:44:12.479Z,5.13
2023-06-15T00:46:41.669Z,5.25
2023-06-15T00:49:09.490Z,4.30
2023-06-15T00:51:41.359Z,6.72
2023-06-15T00:54:09.393Z,6.18
2023-06-15T00:56:39.094Z,6.87
2023-06-15T00:59:06.605Z,9.35
2023-06-15T01:01:35.169Z,8.98
2023-06-15T01:04:03.167Z,6.55
2023-06-15T01:06:33.425Z,7.80
2023-06-15T01:09:03.006Z,5.03
2023-06-15T01:11:37.128Z,5.68
2023-06-15T01:14:08.232Z,7.45
2023-06-15T01:16:52.003Z,5.55
2023-06-15T01:19:35.818Z,4.03
2023-06-15T01:22:20.772Z,4.93
2023-06-15T01:25:04.232Z,5.95
2023-06-15T01:27:35.306Z,5.65
2023-06-15T01:30:09.377Z,9.35
2023-06-15T01:32:40.430Z,6.68
2023-06-15T01:35:09.766Z,5.33
2023-06-15T01:37:44.835Z,5.93
2023-06-15T01:40:13.494Z,8.30
2023-06-15T01:42:41.915Z,5.63
2023-06-15T01:45:13.096Z,9.77
2023-06-15T01:47:41.417Z,8.17
2023-06-15T01:50:12.740Z,5.75
2023-06-15T01:52:42.613Z,5.55
2023-06-15T01:55:09.875Z,6.53
2023-06-15T01:57:38.922Z,6.07
2023-06-15T02:00:11.507Z,4.73
2023-06-15T02:02:42.465Z,10.25
2023-06-15T02:05:09.430Z,10.45
2023-06-15T02:07:37.437Z,6.70
2023-06-15T02:10:27.400Z,7.15
2023-06-15T02:12:56.185Z,4.93
2023-06-15T02:15:27.595Z,6.13
2023-06-15T02:17:59.701Z,6.88
2023-06-15T02:20:30.814Z,9.15
2023-06-15T02:23:01.323Z,6.43
2023-06-15T02:25:31.117Z,7.23
2023-06-15T02:28:03.333Z,5.82
2023-06-15T02:30:30.765Z,6.93
2023-06-15T02:33:01.701Z,7.03
2023-06-15T02:35:29.117Z,8.40
2023-06-15T02:37:56.660Z,7.63
2023-06-15T02:40:23.647Z,7.90
2023-06-15T02:42:50.441Z,7.53
2023-06-15T02:45:18.101Z,7.10
2023-06-15T02:47:45.282Z,8.50
2023-06-15T02:50:14.893Z,7.20
2023-06-15T02:52:42.229Z,8.27
2023-06-15T02:55:09.187Z,8.95
2023-06-15T02:57:36.835Z,7.55
2023-06-15T03:00:06.625Z,8.30
2023-06-15T03:02:35.880Z,8.10
2023-06-15T03:05:05.620Z,7.53
2023-06-15T03:07:54.115Z,8.27
2023-06-15T03:10:20.889Z,7.90
2023-06-15T03:12:47.623Z,7.38
2023-06-15T03:15:14.777Z,7.70
2023-06-15T03:17:42.683Z,10.00
2023-06-15T03:20:13.608Z,8.18
2023-06-15T03:22:41.282Z,10.50
2023-06-15T03:25:13.818Z,10.48
2023-06-15T03:27:42.746Z,9.23
2023-06-15T03:30:12.031Z,7.88
2023-06-15T03:32:39.322Z,7.18
2023-06-15T03:35:07.665Z,10.02
2023-06-15T03:37:34.510Z,15.13
2023-06-15T03:40:03.563Z,8.83
2023-06-15T03:42:30.197Z,8.80
2023-06-15T03:44:58.245Z,9.25
2023-06-15T03:47:24.862Z,7.65
2023-06-15T03:49:51.539Z,9.80
2023-06-15T03:52:18.258Z,9.53
2023-06-15T03:54:44.946Z,8.93
2023-06-15T03:57:11.903Z,9.30
2023-06-15T03:59:38.638Z,8.63
2023-06-15T04:02:14.296Z,8.65
2023-06-15T04:04:41.423Z,9.00
2023-06-15T04:07:10.477Z,8.80
2023-06-15T04:09:48.951Z,10.27
2023-06-15T04:12:15.863Z,10.30
2023-06-15T04:14:43.359Z,10.95
2023-06-15T04:17:12.649Z,7.53
2023-06-15T04:19:43.158Z,8.15
2023-06-15T04:22:14.424Z,9.07
2023-06-15T04:24:41.134Z,13.75
2023-06-15T04:27:13.889Z,8.93
2023-06-15T04:29:46.785Z,8.93
2023-06-15T04:32:13.638Z,8.52
2023-06-15T04:34:48.896Z,8.18
2023-06-15T04:37:18.351Z,8.75
2023-06-15T04:39:45.186Z,8.25
2023-06-15T04:42:13.159Z,8.47
2023-06-15T04:44:48.159Z,8.57
2023-06-15T04:47:14.962Z,10.88
2023-06-15T04:49:43.445Z,7.32
2023-06-15T04:52:11.156Z,9.65
2023-06-15T04:54:51.275Z,11.00
2023-06-15T04:57:18.007Z,9.07
2023-06-15T04:59:46.961Z,8.23
2023-06-15T05:02:15.936Z,8.80
2023-06-15T05:04:42.829Z,9.18
2023-06-15T05:07:09.617Z,8.93
2023-06-15T05:09:36.673Z,8.85
2023-06-15T05:12:06.170Z,7.60
2023-06-15T05:14:32.944Z,7.63
2023-06-15T05:17:08.453Z,6.65
2023-06-15T05:19:35.214Z,7.57
2023-06-15T05:22:04.298Z,10.05
2023-06-15T05:24:31.152Z,9.52
2023-06-15T05:26:58.847Z,7.90
2023-06-15T05:29:27.127Z,9.57
2023-06-15T05:31:56.769Z,9.20
2023-06-15T05:34:23.530Z,9.57
2023-06-15T05:39:21.064Z,12.93
2023-06-15T05:41:47.866Z,7.45
2023-06-15T05:44:14.688Z,9.53
2023-06-15T05:46:41.377Z,8.68
2023-06-15T05:49:08.328Z,7.53
2023-06-15T05:51:34.964Z,8.52
2023-06-15T05:54:04.738Z,7.45
2023-06-15T05:56:31.862Z,9.37
2023-06-15T05:58:58.740Z,8.68
2023-06-15T06:01:25.471Z,8.90
2023-06-15T06:03:52.158Z,10.10
2023-06-15T06:06:18.895Z,7.72
2023-06-15T06:08:45.899Z,7.70
2023-06-15T06:11:12.501Z,7.82
2023-06-15T06:13:39.176Z,7.68
2023-06-15T06:16:06.143Z,7.93
2023-06-15T06:18:32.741Z,9.57
2023-06-15T06:20:59.407Z,6.53
2023-06-15T06:23:25.989Z,9.07
2023-06-15T06:25:52.744Z,10.00
2023-06-15T06:28:19.471Z,8.30
2023-06-15T06:30:46.103Z,7.38
2023-06-15T06:33:12.853Z,7.53
2023-06-15T06:35:39.919Z,7.22
2023-06-15T06:38:06.731Z,7.30
2023-06-15T06:40:33.365Z,8.10
2023-06-15T06:42:59.890Z,8.52
2023-06-15T06:45:30.304Z,8.33
2023-06-15T06:47:57.660Z,11.00
2023-06-15T06:50:24.509Z,9.70
2023-06-15T06:52:51.298Z,6.90
2023-06-15T06:55:18.115Z,6.40
2023-06-15T06:57:44.921Z,8.60
2023-06-15T07:00:12.142Z,7.50
2023-06-15T07:02:38.854Z,7.40
2023-06-15T07:05:06.012Z,7.35
2023-06-15T07:07:32.684Z,6.00
2023-06-15T07:09:59.292Z,8.07
2023-06-15T07:12:25.850Z,6.53
2023-06-15T07:14:52.473Z,8.23
2023-06-15T07:17:19.125Z,6.85
2023-06-15T07:19:46.957Z,7.82
2023-06-15T07:22:13.645Z,7.63
2023-06-15T07:24:40.351Z,7.25
2023-06-15T07:27:07.081Z,6.38
2023-06-15T07:29:33.802Z,7.35
2023-06-15T07:32:00.525Z,6.93
2023-06-15T07:34:27.966Z,6.60
2023-06-15T07:36:54.763Z,7.63
2023-06-15T07:39:21.727Z,7.50
2023-06-15T07:41:52.577Z,8.18
2023-06-15T07:44:19.286Z,8.75
2023-06-15T07:46:45.933Z,7.97
2023-06-15T07:49:12.746Z,6.63
2023-06-15T07:51:53.090Z,8.02
2023-06-15T07:54:23.434Z,7.85
2023-06-15T07:56:50.068Z,8.00
2023-06-15T07:59:19.153Z,6.17
2023-06-15T08:01:45.979Z,7.05
2023-06-15T08:04:13.509Z,5.55
2023-06-15T08:06:40.158Z,11.27
2023-06-15T08:09:07.108Z,6.75
2023-06-15T08:11:33.979Z,5.80
2023-06-15T08:14:00.695Z,5.97
2023-06-15T08:16:27.495Z,7.43
2023-06-15T08:18:54.111Z,9.38
2023-06-15T08:21:20.708Z,6.82
2023-06-15T08:23:47.282Z,6.23
2023-06-15T08:26:16.189Z,7.20
2023-06-15T08:28:53.530Z,6.63
2023-06-15T08:31:21.364Z,5.78
2023-06-15T08:33:47.999Z,10.57
2023-06-15T08:36:14.795Z,5.67
2023-06-15T08:38:41.347Z,6.82
2023-06-15T08:41:08.392Z,4.85
2023-06-15T08:43:36.313Z,4.75
2023-06-15T08:46:04.038Z,6.18
2023-06-15T08:48:33.718Z,7.47
2023-06-15T08:51:00.642Z,5.85
2023-06-15T08:53:28.920Z,6.93
2023-06-15T08:55:56.605Z,5.93
2023-06-15T08:58:23.494Z,5.35
2023-06-15T09:00:51.780Z,5.50
2023-06-15T09:03:19.269Z,5.38
2023-06-15T09:05:45.986Z,5.47
2023-06-15T09:08:13.836Z,6.15
2023-06-15T09:10:42.677Z,4.20
2023-06-15T09:13:19.074Z,3.83
2023-06-15T09:15:51.686Z,5.03
2023-06-15T09:18:18.634Z,5.13
2023-06-15T09:20:45.349Z,6.95
2023-06-15T09:23:14.149Z,5.38
2023-06-15T09:25:49.434Z,5.20
2023-06-15T09:28:16.067Z,7.60
2023-06-15T09:30:42.624Z,5.13
2023-06-15T09:33:18.475Z,5.45
2023-06-15T09:36:00.032Z,6.47
2023-06-15T09:38:42.022Z,6.23
2023-06-15T09:41:09.369Z,5.85
2023-06-15T09:43:40.388Z,6.00
2023-06-15T09:46:21.972Z,5.90
2023-06-15T09:48:48.598Z,5.78
2023-06-15T09:51:21.538Z,5.43
2023-06-15T09:53:50.012Z,8.07
2023-06-15T09:56:29.746Z,7.10
2023-06-15T09:58:59.826Z,7.20
2023-06-15T10:01:29.042Z,8.65
2023-06-15T10:03:57.762Z,6.63
2023-06-15T10:06:27.618Z,5.75
2023-06-15T10:08:58.495Z,5.07
2023-06-15T10:11:27.307Z,6.70
2023-06-15T10:13:58.594Z,7.07
2023-06-15T10:16:27.765Z,5.83
2023-06-15T10:19:01.447Z,5.20
2023-06-15T10:21:30.515Z,5.55
2023-06-15T10:24:06.389Z,8.80
2023-06-15T10:26:33.186Z,5.85
2023-06-15T10:29:10.110Z,6.63
2023-06-15T10:31:45.215Z,6.00
2023-06-15T10:34:21.076Z,7.03
2023-06-15T10:37:27.822Z,7.07
2023-06-15T10:40:00.638Z,5.85
2023-06-15T10:42:28.375Z,6.03
2023-06-15T10:44:59.405Z,9.93
2023-06-15T10:47:26.990Z,6.05
2023-06-15T10:49:54.688Z,5.22
2023-06-15T10:52:21.539Z,4.75
2023-06-15T10:54:53.687Z,5.80
2023-06-15T10:57:29.009Z,7.28
2023-06-15T10:59:57.950Z,5.82
2023-06-15T11:02:30.922Z,6.60
2023-06-15T11:05:11.947Z,8.80
2023-06-15T11:07:44.738Z,5.87
2023-06-15T11:10:15.450Z,5.22
2023-06-15T11:12:44.281Z,5.65
2023-06-15T11:15:14.059Z,6.65
2023-06-15T11:18:00.373Z,6.88
2023-06-15T11:20:46.014Z,6.40
2023-06-15T11:23:20.318Z,6.70
2023-06-15T11:25:49.273Z,6.13
2023-06-15T11:28:34.947Z,5.88
2023-06-15T11:31:05.022Z,6.18
2023-06-15T11:33:37.279Z,6.40
2023-06-15T11:36:05.617Z,7.90
2023-06-15T11:38:32.627Z,5.57
2023-06-15T11:41:07.302Z,5.90
2023-06-15T11:43:38.289Z,7.32
2023-06-15T11:46:05.161Z,7.43
2023-06-15T11:48:31.797Z,7.30
2023-06-15T11:50:58.932Z,6.60
2023-06-15T11:53:25.606Z,6.88
2023-06-15T11:55:52.249Z,7.82
2023-06-15T11:58:19.728Z,6.10
2023-06-15T12:00:46.410Z,10.75
2023-06-15T12:03:13.844Z,8.93
2023-06-15T12:05:42.171Z,5.60
2023-06-15T12:08:11.764Z,9.68
2023-06-15T12:10:40.010Z,6.03
2023-06-15T12:13:12.729Z,5.72
2023-06-15T12:15:43.422Z,7.32
2023-06-15T12:18:10.171Z,6.60
2023-06-15T12:20:40.401Z,7.60
2023-06-15T12:23:07.304Z,6.30
2023-06-15T12:25:45.914Z,6.40
2023-06-15T12:28:21.518Z,6.55
2023-06-15T12:30:49.563Z,9.13
2023-06-15T12:33:31.277Z,6.78
2023-06-15T12:36:02.579Z,7.00
2023-06-15T12:38:31.101Z,6.57
2023-06-15T12:40:59.054Z,6.85
2023-06-15T12:43:26.669Z,6.88
2023-06-15T12:45:56.072Z,8.15
2023-06-15T12:48:24.318Z,7.83
2023-06-15T12:50:51.864Z,5.55
2023-06-15T12:53:19.704Z,6.38
2023-06-15T12:55:47.323Z,9.02
2023-06-15T12:58:14.897Z,9.45
2023-06-15T13:00:42.508Z,8.03
2023-06-15T13:03:10.369Z,6.05
2023-06-15T13:05:43.915Z,6.60
2023-06-15T13:08:10.976Z,9.27
2023-06-15T13:10:37.706Z,6.35
2023-06-15T13:13:04.243Z,7.57
2023-06-15T13:15:31.814Z,6.88
2023-06-15T13:17:58.799Z,7.32
2023-06-15T13:20:25.655Z,8.80
2023-06-15T13:22:53.119Z,9.80
2023-06-15T13:25:27.129Z,7.30
2023-06-15T13:27:53.807Z,9.52
2023-06-15T13:30:20.736Z,6.13
2023-06-15T13:32:47.607Z,7.32
2023-06-15T13:35:15.612Z,6.85
2023-06-15T13:37:43.213Z,7.50
2023-06-15T13:40:12.566Z,6.07
2023-06-15T13:42:42.003Z,6.10
2023-06-15T13:45:14.112Z,8.48
2023-06-15T13:47:42.700Z,7.65
2023-06-15T13:50:11.769Z,6.93
2023-06-15T13:52:38.353Z,6.85
2023-06-15T13:55:07.513Z,7.00
2023-06-15T13:57:35.946Z,9.50
2023-06-15T14:00:04.193Z,6.88
2023-06-15T14:02:31.457Z,7.53
2023-06-15T14:04:58.662Z,6.47
2023-06-15T14:07:25.485Z,6.30
2023-06-15T14:09:52.121Z,7.68
2023-06-15T14:12:18.835Z,6.43
2023-06-15T14:14:45.593Z,6.77
2023-06-15T14:17:12.502Z,6.85
2023-06-15T14:19:39.154Z,8.68
2023-06-15T14:22:05.856Z,10.73
2023-06-15T14:24:33.080Z,7.13
2023-06-15T14:26:59.945Z,10.93
2023-06-15T14:29:26.530Z,7.57
2023-06-15T14:31:53.263Z,8.40
2023-06-15T14:34:21.936Z,10.48
2023-06-15T14:36:50.517Z,8.10
2023-06-15T14:39:18.807Z,8.00
2023-06-15T14:41:45.786Z,8.35
2023-06-15T14:44:14.009Z,8.60
2023-06-15T14:46:42.194Z,7.45
2023-06-15T14:49:10.360Z,6.70
2023-06-15T14:51:38.067Z,7.60
2023-06-15T14:54:05.794Z,6.13
2023-06-15T14:56:32.782Z,9.30
2023-06-15T14:59:01.044Z,9.57
2023-06-15T15:01:30.100Z,7.13
2023-06-15T15:03:57.030Z,7.07
2023-06-15T15:06:24.334Z,6.90
2023-06-15T15:08:54.304Z,5.60
2023-06-15T15:11:22.573Z,10.38
2023-06-15T15:13:49.589Z,7.53
2023-06-15T15:16:16.454Z,8.10
2023-06-15T15:18:43.242Z,6.93
2023-06-15T15:21:10.416Z,7.82
2023-06-15T15:23:37.102Z,6.53
2023-06-15T15:26:04.387Z,8.27
2023-06-15T15:28:31.378Z,8.37
2023-06-15T15:30:58.796Z,10.80
2023-06-15T15:33:25.985Z,7.60
2023-06-15T15:35:53.034Z,6.88
2023-06-15T15:38:19.730Z,10.10
2023-06-15T15:40:46.400Z,5.83
2023-06-15T15:43:15.581Z,8.20
2023-06-15T15:45:42.836Z,7.25
2023-06-15T15:48:10.552Z,6.50
2023-06-15T15:50:38.879Z,7.00
2023-06-15T15:53:06.266Z,6.33
2023-06-15T15:55:32.992Z,6.28
2023-06-15T15:58:00.336Z,7.57
2023-06-15T16:00:27.264Z,5.10
2023-06-15T16:02:54.039Z,6.45
2023-06-15T16:05:21.102Z,7.43
2023-06-15T16:07:48.094Z,6.25
2023-06-15T16:10:15.346Z,7.65
2023-06-15T16:12:42.195Z,5.90
2023-06-15T16:15:10.145Z,5.90
2023-06-15T16:17:37.680Z,8.10
2023-06-15T16:20:05.793Z,6.68
2023-06-15T16:22:33.381Z,5.75
2023-06-15T16:25:00.727Z,5.82
2023-06-15T16:27:27.487Z,6.70
2023-06-15T16:29:54.371Z,6.23
2023-06-15T16:32:21.748Z,7.72
2023-06-15T16:34:48.554Z,6.65
2023-06-15T16:37:15.337Z,5.35
2023-06-15T16:39:45.997Z,4.88
2023-06-15T16:42:13.794Z,5.70
2023-06-15T16:44:41.155Z,6.07
2023-06-15T16:47:07.930Z,5.80
2023-06-15T16:49:39.535Z,4.78
2023-06-15T16:52:08.222Z,6.70
2023-06-15T16:54:38.937Z,7.47
2023-06-15T16:57:08.660Z,6.38
2023-06-15T16:59:36.031Z,6.20
2023-06-15T17:02:03.283Z,5.00
2023-06-15T17:04:33.153Z,7.00
2023-06-15T17:06:59.832Z,5.07
2023-06-15T17:09:27.354Z,6.70
2023-06-15T17:11:55.118Z,6.05
2023-06-15T17:14:21.888Z,6.95
2023-06-15T17:16:48.537Z,5.75
2023-06-15T17:19:15.718Z,7.40
2023-06-15T17:21:43.235Z,4.72
2023-06-15T17:24:10.876Z,5.23
2023-06-15T17:26:41.805Z,6.15
2023-06-15T17:29:11.229Z,5.63
2023-06-15T17:31:38.220Z,5.55
2023-06-15T17:34:05.269Z,7.13
2023-06-15T17:36:31.951Z,6.28
2023-06-15T17:38:59.080Z,7.68
2023-06-15T17:41:25.792Z,7.43
2023-06-15T17:43:52.410Z,6.93
2023-06-15T17:46:19.035Z,3.60
2023-06-15T17:48:51.105Z,5.80
2023-06-15T17:51:18.404Z,6.88
2023-06-15T17:53:45.109Z,4.68
2023-06-15T17:56:13.325Z,6.00
2023-06-15T17:58:41.042Z,5.27
2023-06-15T18:01:13.169Z,5.65
2023-06-15T18:03:41.044Z,4.75
2023-06-15T18:06:08.600Z,5.00
2023-06-15T18:08:35.878Z,5.22
2023-06-15T18:11:02.361Z,4.87
2023-06-15T18:13:29.094Z,10.98
2023-06-15T18:15:55.946Z,5.60
2023-06-15T18:18:23.936Z,6.13
2023-06-15T18:20:51.291Z,4.97
2023-06-15T18:23:18.078Z,5.67
2023-06-15T18:25:45.127Z,4.88
2023-06-15T18:28:11.910Z,5.28
2023-06-15T18:30:38.759Z,5.15
2023-06-15T18:33:05.578Z,5.88
2023-06-15T18:35:32.320Z,5.97
2023-06-15T18:38:00.258Z,7.40
2023-06-15T18:40:27.904Z,5.47
2023-06-15T18:42:54.603Z,4.78
2023-06-15T18:45:21.781Z,5.75
2023-06-15T18:47:48.958Z,4.83
2023-06-15T18:50:15.907Z,4.80
2023-06-15T18:52:42.735Z,5.13
2023-06-15T18:55:09.911Z,5.60
2023-06-15T18:57:36.850Z,4.75
2023-06-15T19:00:04.428Z,3.37
2023-06-15T19:02:31.278Z,5.03
2023-06-15T19:04:57.993Z,6.57
2023-06-15T19:07:24.960Z,6.25
2023-06-15T19:09:51.612Z,4.68
2023-06-15T19:12:18.458Z,5.53
2023-06-15T19:14:45.404Z,5.60
2023-06-15T19:17:12.970Z,4.85
2023-06-15T19:19:41.849Z,4.20
2023-06-15T19:22:08.662Z,4.00
2023-06-15T19:24:35.535Z,6.80
2023-06-15T19:27:02.592Z,4.85
2023-06-15T19:29:29.705Z,6.63
2023-06-15T19:31:56.576Z,7.07
2023-06-15T19:34:23.376Z,4.78
2023-06-15T19:36:55.568Z,7.80
2023-06-15T19:39:26.366Z,4.40
2023-06-15T19:41:56.692Z,4.80
2023-06-15T19:44:23.485Z,5.60
2023-06-15T19:46:50.321Z,5.70
2023-06-15T19:49:17.017Z,8.65
2023-06-15T19:51:44.736Z,3.92
2023-06-15T19:54:11.521Z,5.47
2023-06-15T19:56:41.085Z,3.73
2023-06-15T19:59:12.444Z,5.35
2023-06-15T20:01:39.224Z,6.50
2023-06-15T20:04:05.902Z,6.40
2023-06-15T20:06:32.721Z,4.07
2023-06-15T20:09:00.392Z,4.47
2023-06-15T20:11:26.910Z,3.65
2023-06-15T20:13:53.565Z,8.00
2023-06-15T20:16:20.255Z,4.00
2023-06-15T20:18:52.334Z,5.47
2023-06-15T20:21:19.585Z,5.97
2023-06-15T20:23:46.376Z,6.80
2023-06-15T20:26:16.405Z,4.20
2023-06-15T20:28:44.272Z,8.65
2023-06-15T20:31:10.905Z,5.30
2023-06-15T20:33:38.550Z,5.70
2023-06-15T20:36:06.886Z,7.85
2023-06-15T20:38:35.886Z,4.72
2023-06-15T20:41:05.588Z,4.90
2023-06-15T20:43:33.237Z,5.55
2023-06-15T20:46:01.213Z,6.80
2023-06-15T20:48:28.267Z,6.10
2023-06-15T20:51:00.212Z,4.97
2023-06-15T20:53:27.696Z,5.00
2023-06-15T20:55:54.458Z,4.28
2023-06-15T20:58:21.935Z,5.47
2023-06-15T21:00:49.061Z,4.80
2023-06-15T21:03:16.032Z,6.18
2023-06-15T21:05:42.729Z,5.63
2023-06-15T21:08:10.779Z,6.40
2023-06-15T21:10:37.561Z,6.80
2023-06-15T21:13:05.902Z,5.70
2023-06-15T21:18:35.839Z,5.50
2023-06-15T21:21:25.455Z,5.23
2023-06-15T21:27:16.308Z,5.55
2023-06-15T21:29:43.026Z,5.68
2023-06-15T21:32:09.788Z,5.15
2023-06-15T21:34:39.179Z,6.00
2023-06-15T21:37:10.193Z,6.43
2023-06-15T21:39:38.758Z,6.97
2023-06-15T21:42:08.300Z,7.20
2023-06-15T21:44:35.139Z,8.50
2023-06-15T21:47:03.839Z,7.90
2023-06-15T21:49:30.668Z,6.20
2023-06-15T21:52:34.272Z,5.43
2023-06-15T21:55:06.251Z,5.95
2023-06-15T21:57:34.330Z,7.00
2023-06-15T22:00:06.871Z,7.53
2023-06-15T23:12:27.039Z,15.07
2023-06-15T23:14:58.816Z,11.82
2023-06-15T23:17:27.704Z,14.77
2023-06-15T23:19:54.500Z,12.60
2023-06-15T23:22:23.639Z,12.40
2023-06-15T23:24:55.041Z,15.87
2023-06-15T23:27:23.404Z,15.40
2023-06-15T23:29:50.388Z,15.48
2023-06-15T23:32:17.548Z,16.83
2023-06-15T23:34:45.132Z,17.95
2023-06-15T23:37:11.723Z,18.20
2023-06-15T23:39:38.319Z,17.83
2023-06-15T23:42:05.904Z,21.70
2023-06-15T23:44:32.709Z,20.85
2023-06-15T23:47:23.758Z,20.33
2023-06-15T23:49:52.863Z,19.63
2023-06-15T23:52:19.730Z,22.33
2023-06-15T23:54:48.664Z,25.63
2023-06-15T23:57:15.809Z,25.92
2023-06-15T23:59:45.906Z,19.00
